Weather observations for the past three days for
Melville Hall Airport
Imperial (Metric)
Date Time (ast) Wind (mph) Vis. (mi.) Weather Sky Cond. Temperature (ºF) Relative Humidity Wind Chill (°F) Heat Index (°F) Pressure Precipitation (in)
Air Dwpt 6 hour altimeter (in) sea level (mb) 1 hr 3 hr 6 hr
Max. Min.
03 21:00 NW 2 0.00 Partly Cloudy SCT021 77 77 100% 78 0 0.0
03 19:00 E 3 0.00 Partly Cloudy SCT021 80.6 77 89% 87 0 0.0
03 18:00 E 3 0.00 A Few Clouds FEW021 82.4 77 84% 91 0 0.0
03 17:00 E 7 0.00 A Few Clouds FEW021 84.2 77 79% 94 0 0.0
03 16:00 E 8 0.00 A Few Clouds FEW021 84.2 77 79% 94 0 0.0
03 15:00 E 8 0.00 A Few Clouds FEW021 86 77 75% 97 0 0.0
03 14:00 E 9 0.00 A Few Clouds FEW021 86 77 75% 97 0 0.0
03 13:00 SE 8 0.00 A Few Clouds FEW021 87.8 78.8 75% 102 0 0.0
03 12:00 SE 8 0.00 A Few Clouds FEW021 87.8 77 70% 100 0 0.0
03 11:00 E 9 0.00 A Few Clouds FEW021 86 77 75% 97 0 0.0
03 10:00 SE 9 0.00 A Few Clouds FEW019 87.8 77 70% 100 0 0.0
03 09:00 SE 9 0.00 Partly Cloudy SCT018 86 77 75% 97 0 0.0
03 07:00 W 5 0.00 Partly Cloudy SCT017 77 77 100% 78 0 0.0
03 06:00 W 5 0.00 Showers in Vicinity SCT015 75.2 73.4 94% 74 0 0.0
02 20:00 NW 3 0.00 Mostly Cloudy BKN017 77 75.2 94% 78 0 0.0
02 19:00 W 3 0.00 Mostly Cloudy BKN017 77 75.2 94% 78 0 0.0
02 18:00 S 2 0.00 Mostly Cloudy BKN017 82.4 75.2 79% 89 0 0.0
02 17:00 SE 5 0.00 Partly Cloudy FEW024 SCT042 84.2 75.2 74% 92 0 0.0
02 16:00 S 3 0.00 Mostly Cloudy FEW020 BKN042 86 77 75% 97 0 0.0
02 15:00 SE 7 0.00 Mostly Cloudy FEW021 BKN046 82.4 77 84% 91 0 0.0
02 14:00 E 9 0.00 Mostly Cloudy BKN016 86 78.8 79% 99 0 0.0
02 13:00 E 8 0.00 Partly Cloudy SCT020 86 78.8 79% 99 0 0.0
02 12:00 E 7 0.00 A Few Clouds FEW022 86 77 75% 97 0 0.0
02 11:00 E 7 0.00 Partly Cloudy SCT022 86 77 75% 97 0 0.0
02 10:00 SE 7 0.00 Partly Cloudy SCT022 86 77 75% 97 0 0.0
02 09:00 SE 7 0.00 Partly Cloudy SCT022 86 78.8 79% 99 0 0.0
02 08:00 SE 8 0.00 Partly Cloudy SCT020 84.2 78.8 84% 96 0 0.0
02 07:00 S 3 0.00 Mostly Cloudy BKN016 78.8 78.8 100% 83 0 0.0
02 06:00 NW 2 0.00 Mostly Cloudy BKN016 75.2 75.2 100% 73 0 0.0
01 19:00 SE 3 0.00 Partly Cloudy SCT020 80.6 75.2 84% 86 0 0.0
01 18:00 SE 6 0.00 A Few Clouds FEW020 82.4 75.2 79% 89 0 0.0
01 17:00 E 8 0.00 A Few Clouds FEW020 84.2 77 79% 94 0 0.0
01 16:00 E 9 0.00 A Few Clouds FEW020 86 77 75% 97 0 0.0
01 15:00 E 8 0.00 A Few Clouds FEW024 86 77 75% 97 0 0.0
01 14:00 E 8 0.00 A Few Clouds FEW024 86 77 75% 97 0 0.0
01 13:00 E 9 0.00 A Few Clouds FEW020 86 78.8 79% 99 0 0.0
01 12:00 E 9 0.00 Mostly Cloudy BKN020 86 78.8 79% 99 0 0.0
01 10:00 SE 9 0.00 A Few Clouds FEW017 86 77 75% 97 0 0.0
01 09:00 SE 10 0.00 Partly Cloudy SCT024 86 78.8 79% 99 0 0.0
01 08:00 SE 7 0.00 Mostly Cloudy BKN018 82.4 78.8 89% 92 0 0.0
01 07:00 SE 6 0.00 Partly Cloudy SCT016 80.6 78.8 94% 88 0 0.0
01 06:00 Vrbl 1 0.00 Mostly Cloudy BKN017 77 77 100% 78 0 0.0
Date Time (ast) Wind (mph) Vis. (mi.) Weather Sky Cond. Air Dwpt Max. Min. Relative Humidity Wind Chill (°F) Heat Index (°F) altimeter (in) sea level (mb) 1 hr 3 hr 6 hr
6 hour
Temperature (ºF) Pressure Precipitation (in)